createdAt,value
2023-02-09T00:01:30.881Z,57.20
2023-02-09T00:04:02.475Z,57.00
2023-02-09T00:06:31.334Z,57.00
2023-02-09T00:09:00.138Z,57.20
2023-02-09T00:11:44.508Z,57.20
2023-02-09T00:14:15.765Z,57.10
2023-02-09T00:16:44.095Z,57.20
2023-02-09T00:19:13.057Z,57.20
2023-02-09T00:21:42.258Z,57.20
2023-02-09T00:24:11.399Z,57.50
2023-02-09T00:26:40.087Z,57.70
2023-02-09T00:29:09.000Z,57.70
2023-02-09T00:31:38.939Z,57.60
2023-02-09T00:34:07.842Z,57.60
2023-02-09T00:36:36.015Z,57.50
2023-02-09T00:39:04.169Z,57.60
2023-02-09T00:41:58.257Z,57.70
2023-02-09T00:44:26.331Z,57.60
2023-02-09T00:46:56.031Z,57.50
2023-02-09T00:49:24.302Z,57.60
2023-02-09T00:51:52.429Z,57.70
2023-02-09T00:54:20.788Z,57.80
2023-02-09T00:56:49.369Z,57.80
2023-02-09T00:59:17.896Z,57.80
2023-02-09T01:01:46.061Z,57.90
2023-02-09T01:04:16.926Z,58.10
2023-02-09T01:06:45.067Z,58.10
2023-02-09T01:09:13.131Z,58.30
2023-02-09T01:11:41.176Z,58.50
2023-02-09T01:14:09.731Z,58.50
2023-02-09T01:16:37.862Z,58.20
2023-02-09T01:19:05.976Z,58.50
2023-02-09T01:21:35.421Z,58.50
2023-02-09T01:24:03.647Z,58.10
2023-02-09T01:26:31.699Z,58.20
2023-02-09T01:28:59.808Z,58.40
2023-02-09T01:31:30.220Z,58.40
2023-02-09T01:34:00.383Z,58.50
2023-02-09T01:36:30.097Z,58.50
2023-02-09T01:39:02.329Z,58.60
2023-02-09T01:41:31.214Z,58.70
2023-02-09T01:44:01.651Z,58.70
2023-02-09T01:46:32.309Z,58.70
2023-02-09T01:49:06.848Z,58.80
2023-02-09T01:51:39.177Z,59.00
2023-02-09T01:54:13.780Z,59.10
2023-02-09T01:56:46.089Z,59.10
2023-02-09T01:59:17.012Z,58.90
2023-02-09T02:01:45.690Z,59.10
2023-02-09T02:04:14.751Z,59.20
2023-02-09T02:06:42.980Z,59.20
2023-02-09T02:09:14.801Z,59.20
2023-02-09T02:11:48.817Z,59.10
2023-02-09T02:14:30.533Z,59.10
2023-02-09T02:17:07.290Z,59.20
2023-02-09T02:20:01.826Z,59.20
2023-02-09T02:22:58.636Z,59.60
2023-02-09T02:26:07.891Z,59.80
2023-02-09T02:29:17.239Z,59.80
2023-02-09T02:32:10.912Z,60.30
2023-02-09T02:34:45.184Z,59.90
2023-02-09T02:37:27.654Z,59.50
2023-02-09T02:40:04.202Z,59.80
2023-02-09T02:42:51.540Z,59.60
2023-02-09T02:45:30.930Z,59.70
2023-02-09T02:48:06.435Z,59.60
2023-02-09T02:50:36.114Z,59.90
2023-02-09T02:53:07.467Z,59.90
2023-02-09T02:55:38.792Z,59.70
2023-02-09T02:58:10.497Z,59.90
2023-02-09T03:00:43.884Z,60.00
2023-02-09T03:03:17.774Z,60.00
2023-02-09T03:05:46.255Z,59.80
2023-02-09T03:08:14.340Z,59.70
2023-02-09T03:10:43.537Z,59.90
2023-02-09T03:13:38.423Z,60.30
2023-02-09T03:19:39.749Z,60.80
2023-02-09T03:22:12.761Z,61.00
2023-02-09T03:24:47.520Z,61.10
2023-02-09T03:27:19.592Z,61.40
2023-02-09T03:29:50.794Z,61.60
2023-02-09T03:32:21.017Z,61.80
2023-02-09T03:34:52.627Z,61.90
2023-02-09T03:37:20.696Z,61.80
2023-02-09T03:39:48.667Z,61.90
2023-02-09T03:42:16.726Z,61.80
2023-02-09T03:44:44.722Z,63.10
2023-02-09T03:47:12.867Z,61.90
2023-02-09T03:49:42.500Z,61.90
2023-02-09T03:52:13.643Z,61.70
2023-02-09T03:54:42.104Z,61.80
2023-02-09T03:57:11.136Z,61.50
2023-02-09T03:59:39.704Z,61.60
2023-02-09T04:02:09.494Z,61.60
2023-02-09T04:04:38.022Z,61.50
2023-02-09T04:07:06.221Z,61.70
2023-02-09T04:09:37.567Z,61.70
2023-02-09T04:12:05.990Z,61.90
2023-02-09T04:14:34.016Z,61.80
2023-02-09T04:17:02.000Z,61.80
2023-02-09T04:19:30.071Z,61.70
2023-02-09T04:21:58.175Z,61.90
2023-02-09T04:24:28.971Z,61.70
2023-02-09T04:26:58.364Z,61.70
2023-02-09T04:29:26.697Z,61.50
2023-02-09T04:31:54.776Z,61.50
2023-02-09T04:34:24.613Z,61.80
2023-02-09T04:36:52.780Z,61.90
2023-02-09T04:39:26.201Z,61.90
2023-02-09T04:41:54.239Z,62.00
2023-02-09T04:44:23.562Z,62.20
2023-02-09T04:46:51.666Z,62.90
2023-02-09T04:49:19.697Z,62.40
2023-02-09T04:51:47.781Z,62.70
2023-02-09T04:54:15.837Z,62.00
2023-02-09T04:56:43.874Z,62.00
2023-02-09T04:59:29.585Z,62.50
2023-02-09T05:01:58.990Z,62.60
2023-02-09T05:04:27.004Z,62.50
2023-02-09T05:06:54.989Z,62.30
2023-02-09T05:09:22.996Z,62.40
2023-02-09T05:11:51.013Z,62.40
2023-02-09T05:14:19.058Z,62.60
2023-02-09T05:16:47.161Z,62.50
2023-02-09T05:19:16.599Z,62.20
2023-02-09T05:21:44.660Z,62.30
2023-02-09T05:24:12.691Z,62.40
2023-02-09T05:26:40.727Z,62.30
2023-02-09T05:29:08.781Z,62.60
2023-02-09T05:31:36.902Z,62.70
2023-02-09T05:34:05.119Z,62.60
2023-02-09T05:36:41.844Z,62.60
2023-02-09T05:39:09.938Z,62.30
2023-02-09T05:42:00.895Z,62.50
2023-02-09T05:44:28.916Z,62.60
2023-02-09T05:46:57.791Z,63.10
2023-02-09T05:49:25.905Z,62.80
2023-02-09T05:51:55.303Z,62.60
2023-02-09T05:54:23.435Z,62.40
2023-02-09T05:56:51.613Z,63.00
2023-02-09T05:59:20.485Z,63.00
2023-02-09T06:01:48.609Z,63.00
2023-02-09T06:04:17.096Z,62.90
2023-02-09T06:06:45.216Z,62.70
2023-02-09T06:09:14.795Z,62.80
2023-02-09T06:11:42.902Z,62.80
2023-02-09T06:14:11.762Z,62.80
2023-02-09T06:16:40.750Z,62.90
2023-02-09T06:19:09.726Z,62.80
2023-02-09T06:21:37.866Z,62.80
2023-02-09T06:24:06.242Z,63.00
2023-02-09T06:26:35.689Z,63.00
2023-02-09T06:29:03.794Z,63.00
2023-02-09T06:31:31.853Z,63.20
2023-02-09T06:34:00.192Z,63.20
2023-02-09T06:36:28.347Z,63.10
2023-02-09T06:38:56.468Z,63.10
2023-02-09T06:41:24.538Z,63.20
2023-02-09T06:43:54.119Z,63.10
2023-02-09T06:46:22.238Z,62.90
2023-02-09T06:48:50.762Z,62.90
2023-02-09T06:51:19.002Z,63.40
2023-02-09T06:53:47.391Z,63.60
2023-02-09T06:56:15.716Z,63.60
2023-02-09T06:58:43.993Z,63.10
2023-02-09T07:01:15.636Z,63.20
2023-02-09T07:03:44.682Z,63.30
2023-02-09T07:06:15.065Z,63.20
2023-02-09T07:08:43.590Z,63.40
2023-02-09T07:11:14.173Z,63.40
2023-02-09T07:13:42.558Z,63.40
2023-02-09T07:16:13.415Z,63.20
2023-02-09T07:18:42.194Z,63.30
2023-02-09T07:21:15.565Z,63.40
2023-02-09T07:23:43.707Z,63.50
2023-02-09T07:26:15.241Z,63.80
2023-02-09T07:28:43.797Z,63.70
2023-02-09T07:31:15.023Z,63.40
2023-02-09T07:33:43.183Z,65.70
2023-02-09T07:36:13.008Z,64.80
2023-02-09T07:38:43.431Z,64.30
2023-02-09T07:41:16.966Z,63.90
2023-02-09T07:43:45.524Z,63.60
2023-02-09T07:46:16.837Z,63.50
2023-02-09T07:48:45.057Z,63.60
2023-02-09T07:51:15.219Z,63.50
2023-02-09T07:53:43.745Z,63.20
2023-02-09T07:56:11.918Z,63.30
2023-02-09T07:58:40.193Z,63.20
2023-02-09T08:01:10.874Z,63.10
2023-02-09T08:03:42.298Z,63.10
2023-02-09T08:06:19.709Z,62.70
2023-02-09T08:08:48.997Z,62.60
2023-02-09T08:11:20.752Z,62.00
2023-02-09T08:13:50.806Z,62.20
2023-02-09T08:16:23.372Z,62.40
2023-02-09T08:18:56.668Z,62.20
2023-02-09T08:21:25.470Z,62.20
2023-02-09T08:23:58.017Z,62.20
2023-02-09T08:26:26.219Z,62.00
2023-02-09T08:28:54.932Z,62.00
2023-02-09T08:31:23.148Z,62.00
2023-02-09T08:33:54.280Z,62.00
2023-02-09T08:36:22.691Z,61.80
2023-02-09T08:38:50.860Z,61.90
2023-02-09T08:41:19.663Z,61.90
2023-02-09T08:43:51.572Z,61.80
2023-02-09T08:46:20.366Z,61.40
2023-02-09T08:48:48.791Z,61.00
2023-02-09T08:51:18.224Z,61.10
2023-02-09T08:53:54.470Z,61.10
2023-02-09T08:56:23.257Z,60.90
2023-02-09T08:58:51.363Z,60.90
2023-02-09T09:01:19.676Z,61.00
2023-02-09T09:03:47.736Z,60.60
2023-02-09T09:06:16.142Z,60.80
2023-02-09T09:08:45.677Z,61.10
2023-02-09T09:11:14.664Z,61.10
2023-02-09T09:13:43.232Z,60.90
2023-02-09T09:16:16.123Z,60.80
2023-02-09T09:18:45.357Z,60.80
2023-02-09T09:21:13.640Z,60.50
2023-02-09T09:23:41.714Z,60.50
2023-02-09T09:26:11.358Z,60.50
2023-02-09T09:28:39.420Z,60.50
2023-02-09T09:31:12.407Z,60.40
2023-02-09T09:33:40.739Z,60.10
2023-02-09T09:36:09.907Z,60.00
2023-02-09T09:38:39.131Z,59.80
2023-02-09T09:41:17.765Z,59.80
2023-02-09T09:43:47.632Z,59.50
2023-02-09T09:46:19.944Z,59.30
2023-02-09T09:48:51.575Z,59.20
2023-02-09T09:51:24.777Z,58.70
2023-02-09T09:53:56.225Z,58.90
2023-02-09T09:56:26.888Z,59.20
2023-02-09T09:58:56.558Z,59.30
2023-02-09T10:01:28.524Z,59.20
2023-02-09T10:03:59.549Z,59.20
2023-02-09T10:06:33.726Z,59.00
2023-02-09T10:09:05.884Z,58.80
2023-02-09T10:11:37.471Z,58.70
2023-02-09T10:14:06.864Z,58.80
2023-02-09T10:16:38.268Z,58.40
2023-02-09T10:19:17.513Z,58.50
2023-02-09T10:21:45.748Z,58.50
2023-02-09T10:24:16.323Z,58.70
2023-02-09T10:26:44.513Z,58.60
2023-02-09T10:29:26.284Z,58.50
2023-02-09T10:32:04.310Z,58.60
2023-02-09T10:34:41.910Z,58.50
2023-02-09T10:37:21.340Z,58.40
2023-02-09T10:39:57.173Z,58.20
2023-02-09T10:42:29.303Z,58.00
2023-02-09T10:45:05.480Z,58.10
2023-02-09T10:47:33.573Z,57.90
2023-02-09T10:50:03.319Z,57.90
2023-02-09T10:52:36.605Z,57.70
2023-02-09T10:55:07.798Z,57.80
2023-02-09T10:57:38.479Z,56.90
2023-02-09T11:00:34.809Z,56.60
2023-02-09T11:03:02.874Z,57.50
2023-02-09T11:05:35.057Z,57.90
2023-02-09T11:08:13.497Z,58.10
2023-02-09T11:10:46.200Z,58.10
2023-02-09T11:13:22.285Z,57.80
2023-02-09T11:16:26.723Z,57.70
2023-02-09T11:19:01.959Z,57.70
2023-02-09T11:21:56.989Z,57.40
2023-02-09T11:24:57.278Z,57.50
2023-02-09T11:27:47.382Z,57.60
2023-02-09T11:30:45.847Z,57.40
2023-02-09T11:33:24.030Z,56.90
2023-02-09T11:36:02.389Z,57.30
2023-02-09T11:38:39.192Z,57.30
2023-02-09T11:41:26.814Z,57.30
2023-02-09T11:43:57.245Z,57.10
2023-02-09T11:46:26.432Z,56.80
2023-02-09T11:49:01.387Z,56.80
2023-02-09T11:51:31.780Z,56.90
2023-02-09T11:54:04.596Z,56.50
2023-02-09T11:56:39.513Z,56.80
2023-02-09T11:59:17.583Z,56.60
2023-02-09T12:01:50.164Z,56.10
2023-02-09T12:04:25.926Z,56.20
2023-02-09T12:06:57.386Z,56.40
2023-02-09T12:09:40.038Z,56.20
2023-02-09T12:12:16.513Z,55.70
2023-02-09T12:15:02.722Z,54.80
2023-02-09T12:17:40.839Z,55.70
2023-02-09T12:20:26.063Z,55.90
2023-02-09T12:23:07.692Z,55.80
2023-02-09T12:26:00.706Z,56.70
2023-02-09T12:28:45.291Z,56.00
2023-02-09T12:31:20.100Z,55.20
2023-02-09T12:34:14.123Z,55.10
2023-02-09T12:37:30.086Z,54.90
2023-02-09T12:40:37.848Z,55.00
2023-02-09T12:43:29.893Z,55.20
2023-02-09T12:46:26.627Z,55.30
2023-02-09T12:49:10.140Z,55.90
2023-02-09T12:51:46.831Z,56.20
2023-02-09T12:54:39.013Z,56.00
2023-02-09T12:57:48.406Z,55.60
2023-02-09T13:00:42.821Z,55.20
2023-02-09T13:03:19.025Z,55.40
2023-02-09T13:05:48.758Z,55.60
2023-02-09T13:08:35.179Z,55.90
2023-02-09T13:11:07.165Z,55.80
2023-02-09T13:13:50.011Z,55.80
2023-02-09T13:17:18.841Z,56.00
2023-02-09T13:20:28.461Z,56.30
2023-02-09T13:23:14.172Z,55.40
2023-02-09T13:25:44.269Z,55.60
2023-02-09T13:28:17.192Z,55.30
2023-02-09T13:30:47.797Z,55.90
2023-02-09T13:33:45.321Z,55.90
2023-02-09T13:36:30.391Z,55.50
2023-02-09T13:38:59.415Z,55.40
2023-02-09T13:41:35.628Z,55.40
2023-02-09T13:44:04.060Z,54.50
2023-02-09T13:46:35.391Z,54.60
2023-02-09T13:49:14.166Z,54.90
2023-02-09T13:51:42.192Z,55.50
2023-02-09T13:54:20.551Z,56.30
2023-02-09T13:56:49.110Z,56.00
2023-02-09T13:59:17.718Z,55.80
2023-02-09T14:01:47.312Z,55.60
2023-02-09T14:04:18.301Z,55.60
2023-02-09T14:06:50.775Z,55.30
2023-02-09T14:09:23.636Z,54.90
2023-02-09T14:11:54.641Z,55.30
2023-02-09T14:14:25.568Z,55.00
2023-02-09T14:17:24.533Z,55.20
2023-02-09T14:19:53.600Z,55.50
2023-02-09T14:22:33.514Z,54.80
2023-02-09T14:25:01.955Z,54.50
2023-02-09T14:27:33.111Z,54.80
2023-02-09T14:30:01.718Z,54.30
2023-02-09T14:32:35.172Z,53.90
2023-02-09T14:35:16.195Z,53.50
2023-02-09T14:37:45.814Z,53.30
2023-02-09T14:40:25.664Z,53.70
2023-02-09T14:42:59.114Z,53.90
2023-02-09T14:45:43.318Z,53.90
2023-02-09T14:48:20.692Z,53.80
2023-02-09T14:50:49.647Z,54.10
2023-02-09T14:53:18.962Z,54.30
2023-02-09T14:55:47.380Z,54.20
2023-02-09T14:58:21.848Z,54.30
2023-02-09T15:00:50.300Z,54.80
2023-02-09T15:03:19.913Z,54.90
2023-02-09T15:05:48.909Z,54.40
2023-02-09T15:08:20.066Z,54.50
2023-02-09T15:10:51.015Z,54.50
2023-02-09T15:13:19.071Z,54.60
2023-02-09T15:15:47.553Z,54.90
2023-02-09T15:18:21.731Z,54.70
2023-02-09T15:20:50.272Z,54.70
2023-02-09T15:23:19.785Z,54.70
2023-02-09T15:25:48.479Z,54.80
2023-02-09T15:28:27.979Z,54.80
2023-02-09T15:30:57.101Z,55.20
2023-02-09T15:33:28.624Z,55.40
2023-02-09T15:35:59.489Z,55.40
2023-02-09T15:38:28.200Z,55.60
2023-02-09T15:41:13.927Z,55.80
2023-02-09T15:43:59.723Z,55.80
2023-02-09T15:46:45.201Z,56.00
2023-02-09T15:49:14.758Z,56.00
2023-02-09T15:51:43.021Z,55.90
2023-02-09T15:54:16.177Z,55.90
2023-02-09T15:56:44.391Z,56.00
2023-02-09T15:59:19.219Z,56.50
2023-02-09T16:01:47.523Z,56.60
2023-02-09T16:04:17.004Z,56.60
2023-02-09T16:06:47.487Z,56.50
2023-02-09T16:09:19.885Z,56.70
2023-02-09T16:11:48.509Z,56.70
2023-02-09T16:14:20.307Z,56.80
2023-02-09T16:16:48.967Z,56.90
2023-02-09T16:19:18.916Z,57.00
2023-02-09T16:21:50.595Z,57.00
2023-02-09T16:24:23.732Z,57.00
2023-02-09T16:26:51.892Z,57.10
2023-02-09T16:29:19.935Z,57.20
2023-02-09T16:31:48.647Z,57.40
2023-02-09T16:34:18.147Z,57.40
2023-02-09T16:36:48.550Z,57.50
2023-02-09T16:39:22.298Z,57.40
2023-02-09T16:41:53.604Z,57.50
2023-02-09T16:44:23.531Z,57.80
2023-02-09T16:46:54.084Z,57.70
2023-02-09T16:49:35.118Z,57.80
2023-02-09T16:52:07.985Z,58.10
2023-02-09T16:54:44.592Z,58.20
2023-02-09T16:57:19.212Z,58.30
2023-02-09T16:59:47.827Z,58.40
2023-02-09T17:02:35.242Z,58.40
2023-02-09T17:05:16.225Z,58.60
2023-02-09T17:07:54.082Z,58.80
2023-02-09T17:10:26.067Z,59.10
2023-02-09T17:12:54.189Z,59.40
2023-02-09T17:15:30.736Z,59.40
2023-02-09T17:18:02.769Z,59.40
2023-02-09T17:20:37.195Z,59.70
2023-02-09T17:23:05.784Z,59.80
2023-02-09T17:25:38.947Z,60.10
2023-02-09T17:28:07.026Z,60.40
2023-02-09T17:30:35.809Z,60.50
2023-02-09T17:33:06.873Z,60.70
2023-02-09T17:36:17.461Z,60.60
2023-02-09T17:38:30.209Z,60.40
2023-02-09T17:41:00.436Z,60.50
2023-02-09T17:43:28.761Z,61.00
2023-02-09T17:45:57.334Z,60.90
2023-02-09T17:48:25.760Z,60.90
2023-02-09T17:50:57.997Z,60.70
2023-02-09T17:53:27.965Z,60.60
2023-02-09T17:55:57.138Z,60.70
2023-02-09T17:58:26.122Z,61.40
2023-02-09T18:00:55.996Z,61.90
2023-02-09T18:03:26.289Z,61.90
2023-02-09T18:05:58.523Z,61.60
2023-02-09T18:08:27.401Z,61.60
2023-02-09T18:10:58.580Z,62.10
2023-02-09T18:13:27.061Z,62.70
2023-02-09T18:15:55.272Z,63.00
2023-02-09T18:18:24.452Z,63.10
2023-02-09T18:20:52.809Z,63.20
2023-02-09T18:23:23.497Z,63.30
2023-02-09T18:25:51.889Z,62.70
2023-02-09T18:28:20.127Z,63.20
2023-02-09T18:30:48.301Z,63.50
2023-02-09T18:33:17.172Z,63.70
2023-02-09T18:35:45.911Z,63.80
2023-02-09T18:38:15.813Z,63.90
2023-02-09T18:40:45.363Z,64.20
2023-02-09T18:43:15.742Z,64.30
2023-02-09T18:45:44.380Z,64.40
2023-02-09T18:48:13.018Z,64.50
2023-02-09T18:50:41.219Z,64.80
2023-02-09T18:53:11.077Z,65.10
2023-02-09T18:55:39.643Z,65.10
2023-02-09T18:58:10.242Z,65.10
2023-02-09T19:00:38.468Z,65.40
2023-02-09T19:03:06.767Z,65.70
2023-02-09T19:05:34.929Z,65.80
2023-02-09T19:08:03.098Z,65.80
2023-02-09T19:10:33.156Z,65.80
2023-02-09T19:13:03.215Z,64.80
2023-02-09T19:15:34.078Z,65.60
2023-02-09T19:18:04.078Z,65.70
2023-02-09T19:20:33.976Z,65.80
2023-02-09T19:23:03.773Z,65.30
2023-02-09T19:25:33.204Z,64.80
2023-02-09T19:28:01.748Z,64.80
2023-02-09T19:30:29.803Z,64.80
2023-02-09T19:33:00.160Z,65.00
2023-02-09T19:35:29.335Z,64.70
2023-02-09T19:37:59.241Z,64.40
2023-02-09T19:40:35.665Z,64.60
2023-02-09T19:43:04.231Z,64.40
2023-02-09T19:45:36.485Z,64.00
2023-02-09T19:48:07.504Z,63.90
2023-02-09T19:50:36.751Z,64.00
2023-02-09T19:53:05.753Z,64.10
2023-02-09T19:55:34.275Z,64.10
2023-02-09T19:58:02.457Z,64.20
2023-02-09T20:00:31.097Z,64.10
2023-02-09T20:02:59.294Z,63.90
2023-02-09T20:05:28.877Z,64.20
2023-02-09T20:07:57.130Z,64.50
2023-02-09T20:10:25.380Z,64.90
2023-02-09T20:12:53.477Z,65.10
2023-02-09T20:15:21.538Z,65.50
2023-02-09T20:17:49.711Z,65.80
2023-02-09T20:20:17.970Z,65.80
2023-02-09T20:22:54.715Z,66.00
2023-02-09T20:25:22.861Z,66.10
2023-02-09T20:27:51.055Z,66.30
2023-02-09T20:30:19.485Z,66.60
2023-02-09T20:32:47.697Z,67.00
2023-02-09T20:35:15.926Z,67.40
2023-02-09T20:37:44.204Z,68.00
2023-02-09T20:40:14.222Z,68.10
2023-02-09T20:43:00.005Z,68.00
2023-02-09T20:45:45.546Z,68.20
2023-02-09T20:48:13.772Z,68.60
2023-02-09T20:50:41.839Z,69.80
2023-02-09T20:53:09.879Z,72.50
2023-02-09T20:55:39.461Z,74.30
2023-02-09T20:58:08.605Z,75.30
2023-02-09T21:00:36.668Z,76.10
2023-02-09T21:03:05.182Z,76.50
2023-02-09T21:05:33.289Z,77.10
2023-02-09T21:08:04.279Z,77.10
2023-02-09T21:10:35.342Z,77.50
2023-02-09T21:13:05.986Z,77.80
2023-02-09T21:15:34.164Z,78.10
2023-02-09T21:18:02.472Z,78.30
2023-02-09T21:20:32.136Z,78.40
2023-02-09T21:23:00.272Z,78.40
2023-02-09T21:25:28.672Z,78.80
2023-02-09T21:27:59.339Z,79.10
2023-02-09T21:30:29.452Z,79.30
2023-02-09T21:33:00.390Z,79.50
2023-02-09T21:35:28.569Z,79.80
2023-02-09T21:37:56.685Z,80.20
2023-02-09T21:40:24.923Z,80.80
2023-02-09T21:42:53.243Z,81.30
2023-02-09T21:45:21.337Z,81.70
2023-02-09T21:47:50.726Z,82.10
2023-02-09T21:50:21.127Z,82.10
2023-02-09T21:52:50.006Z,82.40
2023-02-09T21:55:18.351Z,82.60
2023-02-09T21:57:46.529Z,82.70
2023-02-09T22:00:16.157Z,82.70
2023-02-09T22:02:44.879Z,82.80
2023-02-09T22:05:14.804Z,82.80
2023-02-09T22:07:45.589Z,82.60
2023-02-09T22:10:13.892Z,82.50
2023-02-09T22:12:41.890Z,82.50
2023-02-09T22:15:10.963Z,82.40
2023-02-09T22:17:39.247Z,82.50
2023-02-09T22:20:09.408Z,82.60
2023-02-09T22:22:39.885Z,82.90
2023-02-09T22:25:09.049Z,83.20
2023-02-09T22:27:37.186Z,83.10
2023-02-09T22:30:05.824Z,83.10
2023-02-09T22:32:34.000Z,83.10
2023-02-09T22:35:02.289Z,83.40
2023-02-09T22:37:30.307Z,83.40
2023-02-09T22:39:59.769Z,83.70
2023-02-09T22:42:27.688Z,83.50
2023-02-09T22:44:55.856Z,83.60
2023-02-09T22:47:24.013Z,83.90
2023-02-09T22:49:52.077Z,83.90
2023-02-09T22:52:20.139Z,84.00
2023-02-09T22:54:48.305Z,84.10
2023-02-09T22:57:17.810Z,84.30
2023-02-09T22:59:45.946Z,84.40
2023-02-09T23:02:14.004Z,84.10
2023-02-09T23:04:42.194Z,84.60
2023-02-09T23:07:10.288Z,84.50
2023-02-09T23:09:38.442Z,84.30
2023-02-09T23:12:07.000Z,84.50
2023-02-09T23:14:36.463Z,83.90
2023-02-09T23:17:04.516Z,84.00
2023-02-09T23:19:32.545Z,84.20
2023-02-09T23:22:00.744Z,84.10
2023-02-09T23:24:29.386Z,84.00
2023-02-09T23:26:57.772Z,83.80
2023-02-09T23:29:25.920Z,84.00
2023-02-09T23:31:55.244Z,84.00
2023-02-09T23:34:24.219Z,83.50
2023-02-09T23:36:52.905Z,83.70
2023-02-09T23:39:23.444Z,83.80
2023-02-09T23:41:51.571Z,83.90
2023-02-09T23:44:19.903Z,83.50
2023-02-09T23:46:48.182Z,83.40
2023-02-09T23:49:17.663Z,83.30
2023-02-09T23:51:46.554Z,83.30
2023-02-09T23:54:14.604Z,83.10
2023-02-09T23:56:43.199Z,83.30
2023-02-09T23:59:15.553Z,82.90
